Time;durP1;ratioP1;P1;durP2;ratioP2;P2;SDS_P1;SDS_P2;PMS_P1;PMS_P2;Temp;Humidity;BMP_temperature;BMP_pressure;BME280_temperature;BME280_humidity;BME280_pressure;Samples;Min_cycle;Max_cycle;Signal;HPM_P1;HPM_P2
2024/03/27 00:03:28;;;;;;;4.18;3.50;;;;;;;12.99;45.44;97310.28;10411334;28;20041;-62
2024/03/27 00:08:29;;;;;;;3.42;2.38;;;;;;;12.94;45.53;97320.81;10407235;28;20099;-61
2024/03/27 00:13:29;;;;;;;3.42;2.60;;;;;;;12.91;45.20;97321.22;10404182;28;20526;-61
2024/03/27 00:18:30;;;;;;;6.90;2.65;;;;;;;12.88;45.90;97297.59;10410928;28;20038;-61
2024/03/27 00:23:31;;;;;;;2.88;2.42;;;;;;;12.85;45.23;97296.19;10408050;28;20060;-63
2024/03/27 00:28:32;;;;;;;4.80;2.85;;;;;;;12.75;45.55;97293.13;10378996;28;20056;-63
2024/03/27 00:33:33;;;;;;;3.45;2.63;;;;;;;12.85;45.63;97306.03;10404157;28;20442;-61
2024/03/27 00:38:35;;;;;;;3.28;2.70;;;;;;;12.78;45.65;97289.22;10418539;28;20150;-62
2024/03/27 00:43:36;;;;;;;6.18;2.80;;;;;;;12.81;45.97;97273.59;10409328;28;20281;-63
2024/03/27 00:48:38;;;;;;;5.90;2.92;;;;;;;12.81;46.38;97257.59;10390859;28;20123;-61
2024/03/27 00:53:38;;;;;;;3.38;2.92;;;;;;;12.68;46.55;97231.75;10408596;28;20883;-61
2024/03/27 00:58:39;;;;;;;5.05;3.83;;;;;;;12.71;46.55;97241.19;10380176;28;20532;-60
2024/03/27 01:03:40;;;;;;;3.60;2.80;;;;;;;12.69;46.23;97249.41;10416648;28;20124;-60
2024/03/27 01:08:41;;;;;;;3.13;2.42;;;;;;;12.62;46.17;97248.59;10370793;28;20129;-63
2024/03/27 01:13:42;;;;;;;2.67;2.38;;;;;;;12.58;46.32;97231.41;10407025;28;20148;-60
2024/03/27 01:18:42;;;;;;;2.83;2.63;;;;;;;12.65;46.26;97250.84;10426830;28;20580;-62
2024/03/27 01:23:43;;;;;;;2.97;2.53;;;;;;;12.60;46.60;97245.34;10390853;28;20053;-61
2024/03/27 01:28:43;;;;;;;3.72;3.00;;;;;;;12.57;48.15;97240.41;10412477;28;20197;-61
2024/03/27 01:33:47;;;;;;;4.95;3.53;;;;;;;12.44;48.35;97229.78;10414458;28;20413;-62
2024/03/27 01:38:47;;;;;;;5.20;4.00;;;;;;;12.41;49.07;97231.00;10401040;28;20725;-62
2024/03/27 01:43:48;;;;;;;4.97;3.95;;;;;;;12.32;49.12;97208.28;10405152;28;20433;-60
2024/03/27 01:48:48;;;;;;;4.43;3.75;;;;;;;12.28;49.64;97199.88;10396323;28;20482;-62
2024/03/27 01:53:50;;;;;;;5.18;3.92;;;;;;;12.21;49.54;97215.06;10411792;28;20829;-62
2024/03/27 01:58:50;;;;;;;4.80;3.92;;;;;;;12.15;50.33;97213.25;10408445;28;20112;-60
2024/03/27 02:03:52;;;;;;;4.45;4.05;;;;;;;12.10;49.87;97208.53;10411986;28;20074;-62
2024/03/27 02:08:52;;;;;;;4.50;3.75;;;;;;;11.84;49.54;97161.38;10382123;28;20125;-61
2024/03/27 02:13:54;;;;;;;3.63;3.33;;;;;;;12.02;49.08;97180.25;10396404;28;20052;-61
2024/03/27 02:18:55;;;;;;;3.30;3.00;;;;;;;12.06;49.09;97185.97;10410076;28;20132;-61
2024/03/27 02:24:05;;;;;;;3.72;3.20;;;;;;;12.03;48.89;97163.22;10428147;28;20048;-61
2024/03/27 02:29:06;;;;;;;4.30;2.80;;;;;;;12.01;48.36;97167.13;10428381;28;20141;-61
2024/03/27 02:34:06;;;;;;;4.35;3.00;;;;;;;11.95;48.39;97165.25;10415794;28;20143;-61
2024/03/27 02:39:07;;;;;;;3.28;2.58;;;;;;;11.92;48.59;97163.81;10401429;28;20738;-61
2024/03/27 02:44:08;;;;;;;3.63;2.75;;;;;;;11.83;48.88;97159.75;10406515;28;20049;-60
2024/03/27 02:49:08;;;;;;;3.83;2.55;;;;;;;11.80;48.49;97174.28;10408884;28;20073;-61
2024/03/27 02:54:09;;;;;;;4.88;2.50;;;;;;;11.81;48.09;97173.28;10409527;28;20087;-61
2024/03/27 02:59:10;;;;;;;2.72;2.03;;;;;;;11.74;48.53;97144.97;10410108;28;20169;-61
2024/03/27 03:04:11;;;;;;;2.75;2.35;;;;;;;11.76;48.41;97158.94;10410507;28;20120;-64
2024/03/27 03:09:12;;;;;;;4.13;2.20;;;;;;;11.74;48.49;97155.63;10412447;28;20080;-60
2024/03/27 03:14:12;;;;;;;2.30;1.90;;;;;;;11.68;47.90;97165.28;10412721;28;20114;-61
2024/03/27 03:19:13;;;;;;;2.83;2.55;;;;;;;11.63;48.59;97154.41;10430721;28;20179;-60
2024/03/27 03:24:13;;;;;;;2.30;2.10;;;;;;;11.63;48.39;97165.91;10395025;28;20068;-60
2024/03/27 03:29:14;;;;;;;3.13;2.40;;;;;;;11.62;48.67;97193.56;10405921;28;20719;-60
2024/03/27 03:34:15;;;;;;;2.38;2.03;;;;;;;11.57;49.03;97193.34;10374692;28;20107;-61
2024/03/27 03:39:15;;;;;;;2.63;2.20;;;;;;;11.47;48.69;97193.78;10389205;28;20091;-61
2024/03/27 03:44:16;;;;;;;3.08;2.35;;;;;;;11.42;48.92;97182.88;10401817;28;20115;-62
2024/03/27 03:49:16;;;;;;;3.63;2.40;;;;;;;11.42;48.97;97180.22;10410767;28;20052;-61
2024/03/27 03:54:16;;;;;;;2.40;1.95;;;;;;;11.42;49.32;97152.78;10401855;28;20041;-60
2024/03/27 03:59:17;;;;;;;3.08;2.65;;;;;;;11.38;49.54;97131.09;10397799;28;20044;-63
2024/03/27 04:04:17;;;;;;;3.10;2.35;;;;;;;11.33;49.67;97138.84;10406885;28;20197;-60
2024/03/27 04:09:18;;;;;;;3.55;2.72;;;;;;;11.29;49.93;97134.97;10410403;28;20130;-60
2024/03/27 04:14:18;;;;;;;3.78;2.60;;;;;;;11.27;50.07;97126.34;10383628;28;20558;-61
2024/03/27 04:19:19;;;;;;;3.10;2.80;;;;;;;11.22;50.20;97118.97;10385553;28;20044;-61
2024/03/27 04:24:19;;;;;;;4.40;2.60;;;;;;;11.23;50.43;97128.63;10404855;28;20060;-60
2024/03/27 04:29:20;;;;;;;3.70;3.33;;;;;;;11.17;50.72;97124.09;10395476;28;20049;-60
2024/03/27 04:34:20;;;;;;;3.30;2.72;;;;;;;11.11;50.48;97162.19;10408385;28;20047;-60
2024/03/27 04:39:22;;;;;;;3.13;2.83;;;;;;;11.03;50.77;97165.84;10411655;28;20519;-61
2024/03/27 04:44:22;;;;;;;3.70;2.63;;;;;;;11.02;51.02;97164.22;10415115;28;20127;-60
2024/03/27 04:49:23;;;;;;;4.90;2.50;;;;;;;10.96;51.22;97165.84;10411834;28;20124;-61
2024/03/27 04:54:25;;;;;;;4.05;2.85;;;;;;;11.00;51.67;97155.59;10417295;28;20049;-61
2024/03/27 04:59:25;;;;;;;4.85;3.53;;;;;;;10.96;51.93;97159.72;10412013;28;20120;-60
2024/03/27 05:04:26;;;;;;;4.15;3.53;;;;;;;10.93;51.69;97163.59;10371556;28;20053;-60
2024/03/27 05:09:26;;;;;;;4.35;3.20;;;;;;;10.89;51.71;97159.69;10364517;28;20048;-61
2024/03/27 05:14:27;;;;;;;3.97;3.33;;;;;;;10.83;52.47;97141.88;10415021;28;20044;-61
2024/03/27 05:19:27;;;;;;;4.30;3.38;;;;;;;10.84;52.62;97129.38;10395935;28;20048;-61
2024/03/27 05:24:27;;;;;;;6.28;4.47;;;;;;;10.85;52.45;97131.00;10409208;28;20076;-64
2024/03/27 05:29:29;;;;;;;3.03;2.50;;;;;;;10.83;52.78;97133.88;10424688;28;20077;-62
2024/03/27 05:34:29;;;;;;;5.40;3.30;;;;;;;10.79;52.92;97119.31;10413154;28;20623;-62
2024/03/27 05:39:30;;;;;;;4.28;3.42;;;;;;;10.80;52.87;97136.94;10397590;28;20049;-62
2024/03/27 05:44:30;;;;;;;4.25;2.97;;;;;;;10.77;52.83;97129.38;10415392;28;20071;-61
2024/03/27 05:49:31;;;;;;;6.78;2.78;;;;;;;10.80;53.05;97131.63;10399848;28;20485;-61
2024/03/27 05:54:31;;;;;;;3.28;2.85;;;;;;;10.89;52.74;97148.22;10358455;28;20046;-61
2024/03/27 05:59:32;;;;;;;5.95;2.90;;;;;;;10.99;52.93;97147.81;10400744;28;20202;-62
2024/03/27 06:04:33;;;;;;;7.97;4.90;;;;;;;11.06;52.72;97140.66;10391829;28;20104;-61
2024/03/27 06:09:34;;;;;;;4.93;3.03;;;;;;;11.12;52.95;97138.03;10406671;28;20565;-62
2024/03/27 06:14:34;;;;;;;5.20;3.70;;;;;;;11.18;53.15;97147.03;10408315;28;20056;-63
2024/03/27 06:19:35;;;;;;;4.40;3.58;;;;;;;11.25;53.84;97141.72;10404089;28;20078;-64
2024/03/27 06:24:35;;;;;;;5.68;4.57;;;;;;;11.10;53.47;97110.78;10416910;28;20211;-62
2024/03/27 06:29:36;;;;;;;5.30;3.85;;;;;;;11.26;53.20;97136.19;10411429;28;20594;-61
2024/03/27 06:34:36;;;;;;;4.93;3.85;;;;;;;11.37;53.24;97100.13;10367630;28;20049;-60
2024/03/27 06:39:37;;;;;;;6.13;3.40;;;;;;;11.56;53.16;97103.81;10393138;28;20114;-63
2024/03/27 06:44:38;;;;;;;8.02;7.28;;;;;;;11.80;52.74;97117.50;10373833;28;20089;-61
2024/03/27 06:49:38;;;;;;;4.63;4.20;;;;;;;11.90;52.20;97123.22;10381464;28;20649;-63
2024/03/27 06:54:38;;;;;;;3.47;3.13;;;;;;;12.02;51.29;97126.94;10404129;28;20053;-62
2024/03/27 06:59:39;;;;;;;3.97;3.17;;;;;;;12.12;50.75;97125.66;10408350;28;20742;-62
2024/03/27 07:04:42;;;;;;;2.95;2.45;;;;;;;12.18;50.06;97132.81;10382450;28;20041;-61
2024/03/27 07:09:42;;;;;;;3.53;2.63;;;;;;;12.29;50.73;97137.50;10383299;28;20140;-62
2024/03/27 07:14:49;;;;;;;5.00;3.30;;;;;;;12.39;50.58;97142.41;10395513;28;20068;-62
2024/03/27 07:19:50;;;;;;;5.10;3.20;;;;;;;12.33;50.25;97144.06;10407681;28;20514;-61
2024/03/27 07:24:51;;;;;;;4.72;3.00;;;;;;;12.29;50.55;97136.69;10409823;28;20123;-63
2024/03/27 07:29:52;;;;;;;4.30;3.70;;;;;;;12.27;51.28;97139.56;10400563;28;20161;-60
2024/03/27 07:34:52;;;;;;;4.07;3.38;;;;;;;12.31;51.28;97131.94;10379599;28;20049;-62
2024/03/27 07:39:53;;;;;;;6.13;3.75;;;;;;;12.35;51.23;97133.97;10395223;28;20510;-62
2024/03/27 07:44:54;;;;;;;5.25;3.58;;;;;;;12.33;50.48;97130.72;10402313;28;20045;-62
2024/03/27 07:49:54;;;;;;;6.20;3.45;;;;;;;12.32;50.16;97126.41;10396914;28;20045;-61
2024/03/27 07:54:55;;;;;;;4.32;3.08;;;;;;;12.45;49.95;97136.22;10374571;28;20072;-61
2024/03/27 07:59:55;;;;;;;4.10;2.60;;;;;;;12.57;50.04;97128.38;10397006;28;20730;-61
2024/03/27 08:04:58;;;;;;;2.80;2.47;;;;;;;12.56;49.81;97110.72;10404096;28;20061;-59
2024/03/27 08:09:58;;;;;;;3.58;2.95;;;;;;;12.73;49.63;97111.84;10386422;28;20124;-60
2024/03/27 08:14:59;;;;;;;3.10;2.60;;;;;;;12.77;49.73;97114.09;10405336;28;21003;-60
2024/03/27 08:20:00;;;;;;;4.45;2.88;;;;;;;12.82;49.49;97124.94;10387626;28;20077;-61
2024/03/27 08:25:01;;;;;;;3.67;3.05;;;;;;;12.89;49.68;97115.03;10412381;28;20919;-61
2024/03/27 08:30:02;;;;;;;3.97;3.38;;;;;;;12.96;49.81;97121.16;10406829;28;20045;-61
2024/03/27 08:35:03;;;;;;;4.63;2.88;;;;;;;13.00;49.38;97122.38;10409587;28;20110;-61
2024/03/27 08:40:05;;;;;;;4.35;3.95;;;;;;;12.99;49.55;97103.91;10345634;28;20128;-62
2024/03/27 08:45:06;;;;;;;5.38;3.22;;;;;;;12.96;49.81;97094.47;10376445;28;20140;-60
2024/03/27 08:50:11;;;;;;;4.07;3.30;;;;;;;13.03;49.27;97105.94;10404237;28;20104;-60
2024/03/27 08:55:12;;;;;;;7.70;5.03;;;;;;;13.11;50.84;97094.16;10396534;28;20148;-63
2024/03/27 09:00:13;;;;;;;6.38;4.38;;;;;;;12.90;51.76;97055.28;10367784;28;20739;-61
2024/03/27 09:05:17;;;;;;;5.65;4.43;;;;;;;13.19;52.10;97088.53;10365769;28;21407;-62
2024/03/27 09:10:17;;;;;;;5.20;3.92;;;;;;;13.21;51.75;97085.66;10356774;28;20068;-61
2024/03/27 09:15:18;;;;;;;4.80;3.58;;;;;;;13.19;51.60;97098.41;10418388;28;20049;-65
2024/03/27 09:20:20;;;;;;;6.35;5.75;;;;;;;13.23;51.72;97096.94;10408711;28;20057;-59
2024/03/27 09:25:20;;;;;;;23.10;9.95;;;;;;;13.05;51.30;97085.16;10426011;28;20132;-61
2024/03/27 09:30:20;;;;;;;7.75;4.45;;;;;;;13.25;51.45;97102.88;10388269;28;20041;-62
2024/03/27 09:35:21;;;;;;;5.28;3.28;;;;;;;13.46;50.58;97100.91;10393968;28;20120;-62
2024/03/27 09:40:22;;;;;;;6.88;4.97;;;;;;;13.67;50.19;97089.00;10408631;28;20064;-60
2024/03/27 09:45:23;;;;;;;4.07;3.53;;;;;;;13.87;49.67;97088.78;10414389;28;20128;-61
2024/03/27 09:50:25;;;;;;;5.63;3.63;;;;;;;14.29;48.75;97096.94;10409494;28;20132;-61
2024/03/27 09:55:31;;;;;;;3.67;3.28;;;;;;;14.75;47.65;97098.22;10388306;28;20125;-62
2024/03/27 10:00:36;;;;;;;5.25;3.90;;;;;;;15.40;47.13;97074.38;10389830;28;20125;-60
2024/03/27 10:05:41;;;;;;;11.45;5.78;;;;;;;15.75;45.95;97090.47;10387813;28;20140;-62
2024/03/27 10:10:41;;;;;;;5.25;3.58;;;;;;;16.07;45.04;97098.16;10401662;28;20121;-61
2024/03/27 10:15:47;;;;;;;5.43;3.80;;;;;;;15.94;44.65;97085.00;10403447;28;20157;-61
2024/03/27 10:20:48;;;;;;;6.90;4.07;;;;;;;16.69;43.54;97097.50;10387144;28;20717;-60
2024/03/27 10:25:50;;;;;;;7.23;3.97;;;;;;;16.67;42.04;97113.03;10406758;28;20056;-63
2024/03/27 10:30:53;;;;;;;7.22;4.50;;;;;;;17.22;41.97;97114.34;10403892;28;20431;-61
2024/03/27 10:35:53;;;;;;;6.63;4.40;;;;;;;17.05;42.12;97111.59;10404669;28;20136;-61
2024/03/27 10:40:56;;;;;;;4.75;4.00;;;;;;;17.42;41.38;97089.66;10403208;28;20049;-61
2024/03/27 10:46:00;;;;;;;6.20;4.30;;;;;;;17.78;39.50;97113.59;10409513;28;20136;-63
2024/03/27 10:51:02;;;;;;;6.75;4.55;;;;;;;18.49;38.46;97102.16;10399985;28;20590;-62
2024/03/27 10:56:03;;;;;;;4.80;4.30;;;;;;;18.41;38.99;97110.69;10405547;28;20192;-61
2024/03/27 11:01:04;;;;;;;4.90;4.22;;;;;;;18.55;37.20;97117.31;10395331;28;20053;-62
2024/03/27 11:06:05;;;;;;;6.35;4.57;;;;;;;18.14;38.45;97117.63;10395526;28;20140;-60
2024/03/27 11:11:12;;;;;;;5.75;4.22;;;;;;;18.04;38.40;97116.66;10370872;28;20128;-61
2024/03/27 11:16:13;;;;;;;4.40;3.78;;;;;;;17.92;39.93;97122.16;10408247;28;20169;-64
2024/03/27 11:21:14;;;;;;;5.65;3.70;;;;;;;18.20;40.04;97131.97;10406299;28;20127;-61
2024/03/27 11:26:15;;;;;;;4.28;3.30;;;;;;;18.17;40.70;97127.88;10409154;28;20136;-62
2024/03/27 11:31:19;;;;;;;5.20;2.70;;;;;;;18.00;41.89;97129.81;10406731;28;20071;-65
2024/03/27 11:36:24;;;;;;;4.90;2.53;;;;;;;17.82;42.64;97134.38;10391203;28;20116;-60
2024/03/27 11:41:25;;;;;;;3.83;2.20;;;;;;;17.90;42.08;97127.78;10408909;28;20136;-62
2024/03/27 11:46:26;;;;;;;5.20;2.30;;;;;;;17.87;41.95;97139.00;10405178;28;20140;-62
2024/03/27 11:51:27;;;;;;;3.05;2.10;;;;;;;17.67;43.02;97134.97;10400250;28;20136;-61
2024/03/27 11:56:32;;;;;;;6.72;2.03;;;;;;;17.71;43.12;97137.16;10406687;28;20052;-61
2024/03/27 12:01:32;;;;;;;3.72;2.00;;;;;;;17.81;43.09;97140.00;10405476;28;20129;-61
2024/03/27 12:06:34;;;;;;;5.15;2.70;;;;;;;18.18;41.98;97158.34;10401787;28;20056;-61
2024/03/27 12:11:35;;;;;;;3.45;2.25;;;;;;;18.41;41.49;97159.16;10389300;28;20145;-62
2024/03/27 12:16:35;;;;;;;2.83;1.85;;;;;;;18.46;42.14;97156.53;10392984;28;20067;-61
2024/03/27 12:21:38;;;;;;;4.63;2.97;;;;;;;18.32;42.21;97164.97;10379063;28;20672;-61
2024/03/27 12:26:38;;;;;;;3.10;2.40;;;;;;;18.09;42.81;97162.47;10365819;28;20133;-61
2024/03/27 12:31:39;;;;;;;4.43;2.22;;;;;;;17.94;43.61;97166.59;10394054;28;20054;-61
2024/03/27 12:36:39;;;;;;;3.28;2.28;;;;;;;17.61;44.09;97184.34;10421568;28;20135;-62
2024/03/27 12:41:40;;;;;;;4.03;2.60;;;;;;;17.51;45.36;97189.56;10397724;28;20073;-62
2024/03/27 12:46:40;;;;;;;5.30;2.38;;;;;;;17.90;44.91;97199.63;10385438;28;20292;-60
2024/03/27 12:51:40;;;;;;;2.38;1.83;;;;;;;18.07;44.76;97224.63;10354044;28;20396;-61
2024/03/27 12:56:41;;;;;;;3.65;2.03;;;;;;;18.37;44.70;97210.81;10373679;28;20063;-62
2024/03/27 13:01:44;;;;;;;4.22;1.67;;;;;;;18.30;44.57;97229.03;10425097;28;20227;-62
2024/03/27 13:06:44;;;;;;;2.42;1.30;;;;;;;17.87;45.18;97200.91;10424420;28;20610;-61
2024/03/27 13:11:47;;;;;;;1.98;1.13;;;;;;;18.17;45.16;97229.38;10403709;28;20131;-61
2024/03/27 13:16:49;;;;;;;3.88;1.52;;;;;;;18.13;45.96;97230.91;10426649;28;20157;-61
2024/03/27 13:21:49;;;;;;;4.93;2.13;;;;;;;17.59;47.82;97245.63;10400551;28;20145;-61
2024/03/27 13:26:50;;;;;;;4.07;2.10;;;;;;;18.35;46.74;97257.91;10399601;28;20132;-62
2024/03/27 13:31:50;;;;;;;3.17;1.60;;;;;;;17.65;47.84;97233.06;10409041;28;20069;-60
2024/03/27 13:36:50;;;;;;;2.50;1.20;;;;;;;16.99;49.25;97214.66;10381439;28;20064;-61
2024/03/27 13:41:51;;;;;;;2.30;0.85;;;;;;;16.61;50.27;97230.28;10411648;28;20325;-61
2024/03/27 13:46:52;;;;;;;2.83;0.70;;;;;;;16.71;49.62;97242.28;10390845;28;20048;-61
2024/03/27 13:51:52;;;;;;;1.35;0.73;;;;;;;16.55;50.46;97255.38;10403509;28;20902;-61
2024/03/27 13:56:53;;;;;;;1.00;0.47;;;;;;;16.56;49.76;97259.72;10403653;28;20088;-62
2024/03/27 14:01:56;;;;;;;3.40;0.93;;;;;;;16.52;49.79;97252.38;10392270;28;20468;-60
2024/03/27 14:06:57;;;;;;;3.17;0.60;;;;;;;16.74;49.20;97268.69;10380285;28;20139;-60
2024/03/27 14:11:58;;;;;;;1.27;0.20;;;;;;;17.20;48.40;97269.63;10391898;28;20152;-59
2024/03/27 14:17:00;;;;;;;1.05;0.38;;;;;;;17.50;46.91;97247.06;10419964;28;20064;-61
2024/03/27 14:22:01;;;;;;;1.45;0.32;;;;;;;17.62;46.00;97266.63;10416280;28;20072;-61
2024/03/27 14:27:03;;;;;;;2.75;0.30;;;;;;;17.28;46.78;97281.91;10394357;28;20090;-61
2024/03/27 14:32:03;;;;;;;0.85;0.20;;;;;;;16.90;47.83;97286.78;10396705;28;20508;-62
2024/03/27 14:37:04;;;;;;;0.75;0.20;;;;;;;16.47;48.31;97289.81;10401016;28;20056;-61
2024/03/27 14:42:04;;;;;;;1.63;0.20;;;;;;;16.16;49.31;97303.34;10409288;28;20053;-61
2024/03/27 14:47:05;;;;;;;1.73;0.10;;;;;;;15.94;49.41;97304.94;10407532;28;20850;-63
2024/03/27 14:52:06;;;;;;;3.75;0.25;;;;;;;15.73;49.70;97307.91;10403321;28;20048;-59
2024/03/27 14:57:06;;;;;;;3.45;0.70;;;;;;;15.67;50.09;97306.16;10393854;28;20135;-60
2024/03/27 15:02:07;;;;;;;4.28;0.32;;;;;;;15.61;50.19;97325.00;10400199;28;20239;-60
2024/03/27 15:07:07;;;;;;;2.67;0.10;;;;;;;15.48;50.06;97337.53;10407339;28;20055;-61
2024/03/27 15:12:08;;;;;;;2.53;0.20;;;;;;;15.20;50.69;97354.97;10382761;28;20117;-62
2024/03/27 15:17:08;;;;;;;1.85;0.30;;;;;;;14.84;51.57;97366.50;10397973;28;20284;-60
2024/03/27 15:22:09;;;;;;;1.73;0.43;;;;;;;14.67;52.44;97387.69;10399885;28;20128;-61
2024/03/27 15:27:10;;;;;;;1.58;0.40;;;;;;;14.63;53.46;97391.81;10367385;28;20396;-62
2024/03/27 15:32:10;;;;;;;2.47;0.30;;;;;;;14.33;55.15;97377.19;10418341;28;20175;-61
2024/03/27 15:37:11;;;;;;;2.95;0.55;;;;;;;14.24;56.24;97383.03;10404184;28;20511;-62
2024/03/27 15:42:11;;;;;;;1.23;0.73;;;;;;;14.04;58.24;97384.00;10404477;28;20068;-61
2024/03/27 15:47:12;;;;;;;1.75;0.40;;;;;;;14.10;58.60;97409.88;10377508;28;20130;-61
2024/03/27 15:52:12;;;;;;;0.93;0.40;;;;;;;13.73;59.46;97404.31;10386824;28;20510;-60
2024/03/27 15:57:12;;;;;;;1.33;0.45;;;;;;;13.51;60.78;97411.84;10389026;28;20065;-59
2024/03/27 16:02:14;;;;;;;1.70;0.40;;;;;;;13.43;61.94;97415.56;10374379;28;20332;-61
2024/03/27 16:07:15;;;;;;;3.25;0.30;;;;;;;13.26;61.53;97411.69;10376952;28;20324;-61
2024/03/27 16:12:15;;;;;;;0.50;0.28;;;;;;;13.08;62.05;97417.69;10384431;28;20198;-60
2024/03/27 16:17:16;;;;;;;1.60;0.40;;;;;;;13.06;62.22;97404.56;10403125;28;20140;-60
2024/03/27 16:22:16;;;;;;;1.63;0.28;;;;;;;13.07;63.05;97408.84;10390115;28;20049;-60
2024/03/27 16:27:17;;;;;;;2.08;0.45;;;;;;;13.01;62.15;97407.00;10424711;28;21950;-61
2024/03/27 16:32:17;;;;;;;0.85;0.30;;;;;;;12.83;65.08;97431.69;10388878;28;20061;-60
2024/03/27 16:37:19;;;;;;;1.10;0.75;;;;;;;12.78;66.19;97433.34;10392065;28;20079;-59
2024/03/27 16:42:20;;;;;;;0.95;0.28;;;;;;;12.84;64.60;97432.53;10412306;28;20052;-61
2024/03/27 16:47:22;;;;;;;1.90;0.40;;;;;;;12.86;68.05;97435.81;10395098;28;20179;-60
2024/03/27 16:52:23;;;;;;;0.60;0.20;;;;;;;12.88;65.95;97447.09;10403693;28;20076;-63
2024/03/27 16:57:23;;;;;;;0.82;0.15;;;;;;;12.84;66.60;97445.88;10409119;28;20057;-60
2024/03/27 17:02:24;;;;;;;0.57;0.17;;;;;;;12.91;66.48;97444.84;10410715;28;20763;-61
2024/03/27 17:07:25;;;;;;;1.83;1.15;;;;;;;12.80;65.98;97453.47;10404158;28;20225;-60
2024/03/27 17:12:25;;;;;;;1.10;0.40;;;;;;;12.73;66.28;97479.34;10403823;28;20895;-61
2024/03/27 17:17:26;;;;;;;1.70;0.63;;;;;;;12.62;66.40;97471.94;10388239;28;20147;-60
2024/03/27 17:22:27;;;;;;;0.80;0.20;;;;;;;12.56;65.29;97481.59;10386997;28;20063;-60
2024/03/27 17:27:27;;;;;;;0.40;0.22;;;;;;;12.42;66.00;97483.41;10384939;28;20053;-60
2024/03/27 17:32:28;;;;;;;2.45;0.40;;;;;;;12.05;64.62;97482.09;10410531;28;20107;-60
2024/03/27 17:37:29;;;;;;;1.10;0.60;;;;;;;12.08;64.65;97468.38;10413607;28;20114;-60
2024/03/27 17:42:30;;;;;;;1.42;0.25;;;;;;;12.14;65.84;97475.56;10400670;28;20972;-60
2024/03/27 17:47:30;;;;;;;0.68;0.30;;;;;;;12.07;63.22;97477.38;10401283;28;20048;-59
2024/03/27 17:52:31;;;;;;;1.10;0.65;;;;;;;11.90;64.91;97483.03;10416863;28;20059;-61
2024/03/27 17:57:32;;;;;;;0.95;0.60;;;;;;;11.94;64.12;97481.66;10403920;28;20073;-61
2024/03/27 18:02:32;;;;;;;1.63;0.70;;;;;;;12.06;64.76;97489.09;10385325;28;20170;-60
2024/03/27 18:07:34;;;;;;;1.15;0.85;;;;;;;11.96;64.86;97479.59;10380661;28;20045;-64
2024/03/27 18:12:34;;;;;;;1.13;0.68;;;;;;;12.11;63.99;97486.63;10387318;28;20680;-63
2024/03/27 18:17:36;;;;;;;1.50;0.73;;;;;;;12.01;62.56;97487.84;10383808;28;20050;-64
2024/03/27 18:22:36;;;;;;;2.00;1.25;;;;;;;11.90;62.65;97485.72;10382990;28;20629;-63
2024/03/27 18:27:38;;;;;;;2.03;0.70;;;;;;;11.84;62.56;97483.84;10386812;28;20115;-64
2024/03/27 18:32:38;;;;;;;1.02;0.30;;;;;;;11.92;61.97;97482.84;10412244;28;20133;-64
2024/03/27 18:37:38;;;;;;;0.93;0.70;;;;;;;11.85;61.42;97482.84;10411883;28;20057;-61
2024/03/27 18:42:39;;;;;;;2.35;1.55;;;;;;;11.84;61.98;97491.84;10378698;28;20322;-60
2024/03/27 18:47:42;;;;;;;1.10;0.90;;;;;;;11.77;62.73;97502.50;10409908;28;21361;-60
2024/03/27 18:52:44;;;;;;;1.02;0.80;;;;;;;11.68;63.17;97491.16;10384563;28;20796;-62
2024/03/27 18:57:45;;;;;;;2.70;0.77;;;;;;;11.57;63.47;97493.56;10347533;28;21062;-61
2024/03/27 19:02:46;;;;;;;3.28;1.38;;;;;;;11.63;64.38;97500.75;10372849;28;20155;-62
2024/03/27 19:07:47;;;;;;;2.00;1.20;;;;;;;11.70;64.11;97493.63;10403214;28;20617;-61
2024/03/27 19:12:48;;;;;;;2.67;1.55;;;;;;;11.77;64.48;97497.16;10376153;28;20061;-61
2024/03/27 19:17:49;;;;;;;1.42;1.30;;;;;;;11.70;64.41;97501.63;10405413;28;20072;-61
2024/03/27 19:22:52;;;;;;;2.35;1.40;;;;;;;11.73;64.62;97500.41;10403510;28;20080;-61
2024/03/27 19:27:52;;;;;;;2.38;1.58;;;;;;;11.70;64.51;97506.16;10406468;28;20589;-61
2024/03/27 19:32:53;;;;;;;2.10;1.52;;;;;;;11.50;64.61;97518.34;10407731;28;20057;-62
2024/03/27 19:37:53;;;;;;;1.77;1.67;;;;;;;11.51;64.38;97524.47;10401247;28;20072;-61
2024/03/27 19:42:54;;;;;;;2.67;2.13;;;;;;;11.37;64.75;97528.91;10388484;28;20695;-61
2024/03/27 19:47:56;;;;;;;3.15;1.70;;;;;;;11.29;66.59;97543.19;10390473;28;20083;-61
2024/03/27 19:52:59;;;;;;;2.85;1.88;;;;;;;11.23;67.17;97548.47;10408588;28;21109;-60
2024/03/27 19:57:59;;;;;;;3.30;1.50;;;;;;;11.24;66.96;97550.94;10406427;28;20144;-60
2024/03/27 20:03:00;;;;;;;2.15;1.30;;;;;;;11.10;66.93;97557.19;10406434;28;20052;-62
2024/03/27 20:08:01;;;;;;;1.52;1.08;;;;;;;11.09;67.21;97537.75;10407979;28;20139;-60
2024/03/27 20:13:01;;;;;;;3.63;1.58;;;;;;;11.05;67.74;97524.97;10381912;28;20080;-60
2024/03/27 20:18:04;;;;;;;2.60;1.73;;;;;;;11.07;67.16;97533.63;10401660;28;20422;-61
2024/03/27 20:23:04;;;;;;;2.58;1.27;;;;;;;10.95;67.51;97520.81;10388459;28;20640;-61
2024/03/27 20:28:06;;;;;;;1.70;1.50;;;;;;;10.90;67.73;97512.59;10394931;28;20045;-61
2024/03/27 20:33:07;;;;;;;1.23;1.10;;;;;;;11.00;67.49;97506.94;10412186;28;20587;-61
2024/03/27 20:38:07;;;;;;;2.00;1.38;;;;;;;10.91;67.26;97503.63;10355604;28;20133;-60
2024/03/27 20:43:08;;;;;;;1.88;1.70;;;;;;;10.90;67.19;97507.28;10379797;28;20390;-61
2024/03/27 20:48:08;;;;;;;3.03;1.70;;;;;;;10.74;67.84;97502.22;10382244;28;20057;-61
2024/03/27 20:53:09;;;;;;;2.42;1.88;;;;;;;10.59;68.52;97510.28;10408378;28;20057;-62
2024/03/27 20:58:10;;;;;;;2.33;1.80;;;;;;;10.59;69.21;97505.78;10408383;28;20140;-62
2024/03/27 21:03:11;;;;;;;2.28;1.98;;;;;;;10.65;68.90;97503.38;10404744;28;20494;-62
2024/03/27 21:08:11;;;;;;;2.28;1.92;;;;;;;10.66;68.11;97494.38;10390314;28;20420;-61
2024/03/27 21:13:12;;;;;;;3.50;2.05;;;;;;;10.46;69.10;97500.34;10407205;28;20041;-61
2024/03/27 21:18:12;;;;;;;2.58;2.30;;;;;;;10.48;69.52;97500.16;10409204;28;20045;-61
2024/03/27 21:23:13;;;;;;;3.67;2.00;;;;;;;10.41;69.58;97513.41;10404363;28;20052;-60
2024/03/27 21:28:13;;;;;;;4.25;2.88;;;;;;;10.33;69.78;97505.50;10404195;28;20641;-61
2024/03/27 21:33:13;;;;;;;2.90;1.90;;;;;;;10.30;69.88;97500.56;10399972;28;20448;-61
2024/03/27 21:38:14;;;;;;;1.75;1.60;;;;;;;10.26;70.69;97506.25;10387456;28;20059;-59
2024/03/27 21:43:15;;;;;;;2.20;2.00;;;;;;;10.31;70.41;97518.16;10394522;28;20102;-62
2024/03/27 21:48:18;;;;;;;2.75;2.42;;;;;;;10.17;70.46;97502.06;10401509;28;20132;-61
2024/03/27 21:53:18;;;;;;;2.70;2.05;;;;;;;10.10;71.35;97509.13;10400792;28;20140;-61
2024/03/27 21:58:19;;;;;;;2.85;2.40;;;;;;;10.12;70.98;97496.50;10410610;28;20132;-60
2024/03/27 22:03:19;;;;;;;3.08;2.05;;;;;;;10.05;70.35;97487.63;10419276;28;20075;-59
2024/03/27 22:08:19;;;;;;;3.05;2.08;;;;;;;9.97;71.25;97495.69;10414931;28;20064;-60
2024/03/27 22:13:20;;;;;;;2.63;2.08;;;;;;;9.96;70.88;97488.75;10411992;28;20036;-60
2024/03/27 22:18:20;;;;;;;2.15;1.88;;;;;;;9.95;70.76;97482.59;10409505;28;20103;-61
2024/03/27 22:23:21;;;;;;;1.77;1.67;;;;;;;9.86;70.70;97479.25;10407815;28;20614;-60
2024/03/27 22:28:21;;;;;;;2.08;1.88;;;;;;;9.87;70.46;97485.38;10389992;28;20110;-60
2024/03/27 22:33:21;;;;;;;2.08;1.60;;;;;;;9.90;70.35;97477.84;10401889;28;20091;-60
2024/03/27 22:38:22;;;;;;;3.15;1.35;;;;;;;9.79;70.56;97496.94;10407948;28;20052;-61
2024/03/27 22:43:22;;;;;;;2.00;1.70;;;;;;;9.85;70.52;97504.16;10408581;28;20679;-59
2024/03/27 22:48:23;;;;;;;1.55;1.30;;;;;;;9.90;70.26;97501.75;10388498;28;20128;-60
2024/03/27 22:53:25;;;;;;;1.52;1.20;;;;;;;9.90;70.20;97485.00;10398765;28;20905;-60
2024/03/27 22:58:26;;;;;;;2.72;1.60;;;;;;;9.95;69.94;97476.47;10413725;28;20206;-61
2024/03/27 23:03:27;;;;;;;1.90;1.58;;;;;;;9.97;69.99;97479.75;10393537;28;20052;-60
2024/03/27 23:08:27;;;;;;;1.80;1.38;;;;;;;9.63;70.33;97446.69;10388108;28;20125;-60
2024/03/27 23:13:28;;;;;;;1.85;1.42;;;;;;;9.86;70.25;97473.94;10374631;28;20728;-61
2024/03/27 23:18:30;;;;;;;3.10;1.75;;;;;;;9.77;70.43;97490.97;10391652;28;20170;-60
2024/03/27 23:23:31;;;;;;;2.13;1.70;;;;;;;9.78;70.64;97484.66;10412045;28;20136;-60